Time;durP1;ratioP1;P1;durP2;ratioP2;P2;SDS_P1;SDS_P2;PMS_P1;PMS_P2;Temp;Humidity;BMP_temperature;BMP_pressure;BME280_temperature;BME280_humidity;BME280_pressure;Samples;Min_cycle;Max_cycle;Signal;HPM_P1;HPM_P2
2020/12/18 00:01:46;;;;;;;29.43;6.50;;;;;;;;;;5007566;28;21240;-74
2020/12/18 00:04:50;;;;;;;18.57;6.00;;;;;;;;;;4993520;28;20596;-74
2020/12/18 00:07:54;;;;;;;23.80;5.23;;;;;;;;;;4993667;28;20535;-74
2020/12/18 00:10:59;;;;;;;7.77;5.30;;;;;;;;;;4993564;28;20628;-74
2020/12/18 00:14:03;;;;;;;10.47;6.27;;;;;;;;;;4993875;28;20585;-74
2020/12/18 00:17:07;;;;;;;11.23;5.17;;;;;;;;;;5012373;28;20576;-74
2020/12/18 00:20:11;;;;;;;9.77;5.50;;;;;;;;;;5000406;28;20589;-74
2020/12/18 00:23:15;;;;;;;14.13;5.87;;;;;;;;;;4993694;28;20593;-74
2020/12/18 00:26:19;;;;;;;19.57;5.70;;;;;;;;;;4993361;28;20610;-74
2020/12/18 00:29:23;;;;;;;9.50;5.63;;;;;;;;;;4972169;28;20597;-74
2020/12/18 00:32:28;;;;;;;6.63;5.57;;;;;;;;;;4993295;28;20972;-73
2020/12/18 00:35:32;;;;;;;6.20;5.17;;;;;;;;;;4994785;28;20620;-74
2020/12/18 00:38:36;;;;;;;6.50;5.80;;;;;;;;;;4999300;28;20628;-74
2020/12/18 00:41:40;;;;;;;5.60;4.93;;;;;;;;;;5011938;28;20620;-74
2020/12/18 00:44:44;;;;;;;7.67;5.47;;;;;;;;;;5004364;28;20588;-74
2020/12/18 00:47:49;;;;;;;5.93;5.30;;;;;;;;;;4993017;28;20996;-73
2020/12/18 00:50:53;;;;;;;6.03;5.40;;;;;;;;;;4996520;28;20619;-74
2020/12/18 00:53:58;;;;;;;6.47;5.00;;;;;;;;;;4985850;28;20603;-74
2020/12/18 00:57:01;;;;;;;8.07;5.87;;;;;;;;;;4984551;28;20581;-74
2020/12/18 01:00:07;;;;;;;5.87;5.27;;;;;;;;;;4984502;28;20629;-74
2020/12/18 01:03:30;;;;;;;6.67;5.50;;;;;;;;;;4995235;28;21124;-73
2020/12/18 01:06:34;;;;;;;5.97;5.33;;;;;;;;;;4973591;28;20589;-74
2020/12/18 01:09:40;;;;;;;7.27;5.73;;;;;;;;;;4983964;28;20640;-74
2020/12/18 01:12:49;;;;;;;10.07;6.17;;;;;;;;;;4973144;28;20628;-73
2020/12/18 01:15:54;;;;;;;7.63;6.23;;;;;;;;;;4968942;28;21065;-74
2020/12/18 01:19:06;;;;;;;6.27;5.40;;;;;;;;;;5003749;28;20592;-74
2020/12/18 01:22:15;;;;;;;7.90;6.43;;;;;;;;;;5001622;28;20647;-74
2020/12/18 01:25:23;;;;;;;7.77;6.13;;;;;;;;;;4975645;28;20616;-74
2020/12/18 01:28:28;;;;;;;6.23;5.60;;;;;;;;;;4995809;28;20617;-74
2020/12/18 01:31:34;;;;;;;7.23;6.23;;;;;;;;;;4973553;28;21223;-74
2020/12/18 01:34:39;;;;;;;6.57;5.17;;;;;;;;;;4983661;28;20593;-74
2020/12/18 01:37:44;;;;;;;6.00;5.40;;;;;;;;;;4978565;28;20586;-74
2020/12/18 01:40:51;;;;;;;6.23;4.93;;;;;;;;;;4984262;28;20553;-74
2020/12/18 01:43:55;;;;;;;5.37;4.80;;;;;;;;;;4994834;28;20616;-74
2020/12/18 01:46:59;;;;;;;6.03;5.40;;;;;;;;;;4992177;28;20600;-74
2020/12/18 01:50:05;;;;;;;6.47;5.53;;;;;;;;;;4999368;28;20585;-74
2020/12/18 01:53:19;;;;;;;7.07;5.67;;;;;;;;;;4983581;28;20598;-74
2020/12/18 01:56:43;;;;;;;6.30;5.43;;;;;;;;;;5007651;28;20585;-74
2020/12/18 01:59:53;;;;;;;6.07;5.47;;;;;;;;;;4982658;28;20601;-74
2020/12/18 02:03:05;;;;;;;6.33;5.70;;;;;;;;;;4983420;28;20937;-74
2020/12/18 02:06:36;;;;;;;6.43;5.50;;;;;;;;;;4983114;28;20633;-74
2020/12/18 02:09:52;;;;;;;6.63;5.87;;;;;;;;;;4983262;28;20625;-74
2020/12/18 02:12:58;;;;;;;6.90;6.13;;;;;;;;;;5002588;28;20987;-74
2020/12/18 02:16:02;;;;;;;8.33;6.03;;;;;;;;;;5000740;28;20592;-74
2020/12/18 02:19:19;;;;;;;7.63;6.00;;;;;;;;;;4993159;28;20621;-74
2020/12/18 02:22:24;;;;;;;8.83;5.87;;;;;;;;;;4983045;28;20625;-74
2020/12/18 02:25:38;;;;;;;8.37;6.83;;;;;;;;;;4966737;28;20616;-73
2020/12/18 02:28:47;;;;;;;7.77;6.50;;;;;;;;;;4988174;28;20612;-74
2020/12/18 02:31:53;;;;;;;8.07;6.10;;;;;;;;;;5002342;28;20628;-74
2020/12/18 02:35:06;;;;;;;8.17;6.63;;;;;;;;;;4961799;28;20651;-86
2020/12/18 02:38:15;;;;;;;8.47;6.47;;;;;;;;;;4938419;29;20935;-86
2020/12/18 02:41:21;;;;;;;8.80;6.40;;;;;;;;;;4927004;29;21083;-86
2020/12/18 02:44:33;;;;;;;7.77;6.00;;;;;;;;;;4944550;29;20596;-86
2020/12/18 02:47:50;;;;;;;8.17;6.40;;;;;;;;;;4945584;29;21237;-86
2020/12/18 02:51:08;;;;;;;8.43;6.50;;;;;;;;;;4936719;29;20656;-88
2020/12/18 02:54:13;;;;;;;8.80;6.80;;;;;;;;;;4934983;29;20595;-86
2020/12/18 02:57:35;;;;;;;7.80;6.17;;;;;;;;;;4929478;29;20544;-86
2020/12/18 03:01:00;;;;;;;6.63;5.93;;;;;;;;;;4920260;29;20627;-86
2020/12/18 03:04:04;;;;;;;7.83;5.80;;;;;;;;;;4924443;29;20591;-86
2020/12/18 03:07:31;;;;;;;6.90;5.47;;;;;;;;;;4943307;28;20635;-86
2020/12/18 03:10:35;;;;;;;6.33;5.40;;;;;;;;;;4958070;28;20647;-85
2020/12/18 03:13:40;;;;;;;6.63;5.63;;;;;;;;;;4935426;29;20543;-86
2020/12/18 03:16:45;;;;;;;6.33;5.57;;;;;;;;;;4933817;29;20958;-86
2020/12/18 03:20:00;;;;;;;6.43;5.47;;;;;;;;;;4945543;29;20643;-86
2020/12/18 03:23:14;;;;;;;6.37;5.43;;;;;;;;;;4925058;29;20603;-86
2020/12/18 03:26:37;;;;;;;6.60;5.30;;;;;;;;;;4937218;29;20543;-86
2020/12/18 03:29:51;;;;;;;5.77;5.10;;;;;;;;;;4925050;29;20650;-86
2020/12/18 03:32:57;;;;;;;6.77;4.83;;;;;;;;;;4931056;29;20599;-86
2020/12/18 03:36:01;;;;;;;6.53;5.43;;;;;;;;;;4905889;29;20548;-86
2020/12/18 03:39:07;;;;;;;5.97;5.07;;;;;;;;;;4944124;29;21142;-86
2020/12/18 03:42:13;;;;;;;5.50;4.80;;;;;;;;;;4946315;29;21078;-87
2020/12/18 03:45:18;;;;;;;6.63;5.20;;;;;;;;;;4935214;29;20608;-86
2020/12/18 03:48:29;;;;;;;6.50;5.37;;;;;;;;;;4917554;29;20639;-86
2020/12/18 03:51:43;;;;;;;6.50;5.40;;;;;;;;;;4941587;29;20603;-87
2020/12/18 03:54:49;;;;;;;6.77;5.77;;;;;;;;;;4916826;29;20583;-86
2020/12/18 03:58:22;;;;;;;5.40;4.90;;;;;;;;;;4947153;29;20595;-86
2020/12/18 04:01:49;;;;;;;6.57;5.17;;;;;;;;;;4928313;29;20612;-87
2020/12/18 04:04:54;;;;;;;5.93;5.30;;;;;;;;;;4939609;29;20536;-88
2020/12/18 04:07:58;;;;;;;7.90;5.20;;;;;;;;;;4947047;29;20635;-86
2020/12/18 04:11:25;;;;;;;6.53;5.20;;;;;;;;;;4931303;29;20556;-87
2020/12/18 04:14:48;;;;;;;7.97;5.40;;;;;;;;;;4937386;29;20583;-86
2020/12/18 04:17:58;;;;;;;6.23;5.40;;;;;;;;;;4935994;29;20543;-87
2020/12/18 04:21:02;;;;;;;8.60;5.90;;;;;;;;;;4916518;29;20619;-85
2020/12/18 04:24:22;;;;;;;5.63;5.00;;;;;;;;;;4920035;29;20603;-87
2020/12/18 04:27:27;;;;;;;7.07;5.60;;;;;;;;;;4937007;29;20635;-87
2020/12/18 04:30:32;;;;;;;6.60;5.50;;;;;;;;;;4941837;29;20655;-85
2020/12/18 04:33:36;;;;;;;7.37;5.03;;;;;;;;;;4929068;29;20630;-87
2020/12/18 04:36:41;;;;;;;5.83;5.17;;;;;;;;;;4941300;29;20602;-86
2020/12/18 04:39:46;;;;;;;7.70;5.40;;;;;;;;;;4924444;29;20634;-86
2020/12/18 04:42:51;;;;;;;7.30;5.80;;;;;;;;;;4959695;29;20623;-86
2020/12/18 04:45:59;;;;;;;6.30;5.60;;;;;;;;;;4929118;29;20547;-86
2020/12/18 04:49:12;;;;;;;8.40;5.67;;;;;;;;;;4950571;29;20624;-87
2020/12/18 04:52:23;;;;;;;7.17;5.77;;;;;;;;;;4928079;29;20598;-87
2020/12/18 04:55:35;;;;;;;7.33;6.00;;;;;;;;;;4936239;29;20587;-87
2020/12/18 04:58:58;;;;;;;6.53;5.83;;;;;;;;;;4934163;29;20955;-87
2020/12/18 05:02:17;;;;;;;6.70;5.43;;;;;;;;;;4928061;29;20587;-87
2020/12/18 05:05:25;;;;;;;7.57;5.63;;;;;;;;;;4939128;29;20551;-86
2020/12/18 05:08:38;;;;;;;7.47;5.60;;;;;;;;;;4930751;29;20626;-86
2020/12/18 05:11:43;;;;;;;7.30;5.37;;;;;;;;;;4946770;29;20607;-86
2020/12/18 05:14:51;;;;;;;7.30;5.87;;;;;;;;;;4941642;29;20626;-86
2020/12/18 05:18:07;;;;;;;6.73;5.73;;;;;;;;;;4945701;29;20560;-86
2020/12/18 05:21:13;;;;;;;6.33;5.17;;;;;;;;;;4959425;29;20642;-86
2020/12/18 05:24:25;;;;;;;6.83;5.73;;;;;;;;;;4930272;29;20594;-85
2020/12/18 05:27:30;;;;;;;5.60;5.00;;;;;;;;;;4946577;29;20955;-86
2020/12/18 05:30:36;;;;;;;6.57;5.70;;;;;;;;;;4936392;29;20646;-85
2020/12/18 05:34:03;;;;;;;8.23;5.53;;;;;;;;;;4948736;28;20634;-85
2020/12/18 05:37:23;;;;;;;7.50;5.90;;;;;;;;;;4937724;29;20587;-85
2020/12/18 05:40:45;;;;;;;6.67;5.63;;;;;;;;;;4937347;29;20644;-87
2020/12/18 05:44:06;;;;;;;6.80;5.37;;;;;;;;;;4947733;29;21070;-87
2020/12/18 05:47:53;;;;;;;7.73;5.90;;;;;;;;;;4943251;29;20615;-86
2020/12/18 05:50:57;;;;;;;6.20;5.00;;;;;;;;;;4947336;29;21189;-87
2020/12/18 05:54:17;;;;;;;8.93;6.27;;;;;;;;;;4947750;28;20556;-89
2020/12/18 05:57:35;;;;;;;8.13;6.20;;;;;;;;;;4934698;29;20592;-88
2020/12/18 06:00:44;;;;;;;8.07;6.37;;;;;;;;;;4937536;29;20623;-88
2020/12/18 06:04:22;;;;;;;7.87;6.27;;;;;;;;;;4922445;29;20635;-86
2020/12/18 06:07:34;;;;;;;8.77;6.10;;;;;;;;;;4935295;29;20629;-87
2020/12/18 06:10:46;;;;;;;9.83;6.73;;;;;;;;;;4946565;29;20622;-85
2020/12/18 06:14:04;;;;;;;13.30;7.97;;;;;;;;;;4940529;29;20552;-87
2020/12/18 06:17:26;;;;;;;9.80;6.90;;;;;;;;;;4937947;29;20560;-86
2020/12/18 06:20:36;;;;;;;8.27;6.27;;;;;;;;;;4929599;29;21209;-86
2020/12/18 06:23:45;;;;;;;8.00;6.30;;;;;;;;;;4932388;29;20567;-87
2020/12/18 06:27:15;;;;;;;8.50;6.43;;;;;;;;;;4959973;28;20978;-87
2020/12/18 06:30:30;;;;;;;7.07;5.53;;;;;;;;;;4940591;29;20655;-86
2020/12/18 06:33:55;;;;;;;7.20;5.67;;;;;;;;;;4952976;29;20615;-86
2020/12/18 06:37:31;;;;;;;7.43;6.17;;;;;;;;;;4922865;29;20537;-87
2020/12/18 06:40:50;;;;;;;8.23;6.17;;;;;;;;;;4928480;29;20627;-87
2020/12/18 06:44:33;;;;;;;7.70;6.10;;;;;;;;;;4933570;29;20607;-86
2020/12/18 06:47:59;;;;;;;7.23;5.37;;;;;;;;;;4951238;29;20647;-87
2020/12/18 06:51:32;;;;;;;8.20;5.90;;;;;;;;;;4945410;29;20587;-87
2020/12/18 06:54:57;;;;;;;7.07;5.93;;;;;;;;;;4949458;29;20603;-84
2020/12/18 06:58:11;;;;;;;8.73;6.63;;;;;;;;;;4938367;29;20541;-82
2020/12/18 07:01:29;;;;;;;7.53;6.17;;;;;;;;;;4936235;28;21000;-82
2020/12/18 07:04:39;;;;;;;7.23;6.30;;;;;;;;;;4976607;28;21080;-82
2020/12/18 07:07:47;;;;;;;7.73;5.93;;;;;;;;;;4946435;28;20598;-81
2020/12/18 07:10:52;;;;;;;10.70;5.83;;;;;;;;;;4988737;28;20622;-82
2020/12/18 07:13:59;;;;;;;11.70;7.23;;;;;;;;;;4927627;29;20587;-85
2020/12/18 07:17:09;;;;;;;10.77;6.80;;;;;;;;;;4940749;29;20670;-83
2020/12/18 07:20:15;;;;;;;27.37;16.50;;;;;;;;;;4932739;29;20651;-83
2020/12/18 07:23:21;;;;;;;18.63;8.63;;;;;;;;;;4946046;29;20968;-85
2020/12/18 07:26:25;;;;;;;11.03;6.77;;;;;;;;;;4945254;29;20559;-84
2020/12/18 07:29:30;;;;;;;11.53;8.27;;;;;;;;;;4934825;29;20671;-85
2020/12/18 07:32:35;;;;;;;9.97;7.50;;;;;;;;;;4926537;29;20560;-84
2020/12/18 07:35:42;;;;;;;10.27;7.47;;;;;;;;;;4905143;29;20545;-84
2020/12/18 07:38:46;;;;;;;8.73;7.13;;;;;;;;;;4919398;29;20588;-84
2020/12/18 07:42:01;;;;;;;10.23;7.00;;;;;;;;;;4955735;29;20603;-84
2020/12/18 07:45:09;;;;;;;9.50;7.33;;;;;;;;;;4945036;29;20599;-83
2020/12/18 07:48:22;;;;;;;10.20;7.10;;;;;;;;;;4951589;28;21214;-85
2020/12/18 07:51:26;;;;;;;10.77;7.27;;;;;;;;;;4927829;29;20881;-82
2020/12/18 07:54:30;;;;;;;7.87;6.13;;;;;;;;;;4942464;29;20599;-85
2020/12/18 07:57:35;;;;;;;7.20;6.00;;;;;;;;;;4944869;28;21094;-84
2020/12/18 08:00:39;;;;;;;6.97;5.83;;;;;;;;;;4949007;29;20655;-85
2020/12/18 08:04:03;;;;;;;7.17;6.13;;;;;;;;;;4958905;29;20994;-87
2020/12/18 08:07:08;;;;;;;8.10;6.20;;;;;;;;;;4949598;29;20588;-86
2020/12/18 08:10:14;;;;;;;7.27;5.73;;;;;;;;;;4950989;29;20627;-84
2020/12/18 08:13:29;;;;;;;7.70;5.73;;;;;;;;;;4950051;29;20599;-85
2020/12/18 08:16:33;;;;;;;6.90;5.90;;;;;;;;;;4949505;29;21158;-85
2020/12/18 08:19:38;;;;;;;6.37;5.63;;;;;;;;;;4964956;28;20626;-85
2020/12/18 08:22:44;;;;;;;6.23;5.63;;;;;;;;;;4950950;29;20587;-88
2020/12/18 08:25:49;;;;;;;6.80;5.53;;;;;;;;;;4947087;29;20599;-88
2020/12/18 08:28:53;;;;;;;8.30;6.07;;;;;;;;;;4952195;28;20630;-88
2020/12/18 08:32:02;;;;;;;7.67;6.43;;;;;;;;;;4944457;28;20623;-91
2020/12/18 08:35:08;;;;;;;10.23;6.57;;;;;;;;;;4925387;29;20563;-87
2020/12/18 08:38:14;;;;;;;8.30;6.53;;;;;;;;;;4936731;29;20583;-84
2020/12/18 08:41:18;;;;;;;7.87;6.53;;;;;;;;;;4936416;29;21236;-86
2020/12/18 08:44:36;;;;;;;9.20;6.70;;;;;;;;;;4937026;29;20552;-87
2020/12/18 08:47:42;;;;;;;6.90;6.13;;;;;;;;;;4925267;29;20599;-87
2020/12/18 08:50:46;;;;;;;6.23;5.20;;;;;;;;;;4958091;29;20618;-87
2020/12/18 08:53:50;;;;;;;6.47;5.20;;;;;;;;;;4935415;29;20595;-86
2020/12/18 08:57:32;;;;;;;7.20;6.00;;;;;;;;;;4925036;29;20591;-86
2020/12/18 09:00:37;;;;;;;8.50;5.97;;;;;;;;;;4935825;29;20643;-86
2020/12/18 09:03:41;;;;;;;5.97;5.37;;;;;;;;;;4947097;29;20547;-84
2020/12/18 09:06:50;;;;;;;6.90;6.10;;;;;;;;;;4954851;28;20959;-85
2020/12/18 09:09:54;;;;;;;14.40;9.93;;;;;;;;;;4946896;28;20674;-83
2020/12/18 09:13:13;;;;;;;10.27;6.07;;;;;;;;;;4916809;29;20599;-85
2020/12/18 09:16:23;;;;;;;9.80;6.30;;;;;;;;;;4917259;29;20189;-84
2020/12/18 09:19:27;;;;;;;6.90;6.07;;;;;;;;;;4949790;29;20211;-85
2020/12/18 09:23:07;;;;;;;7.50;6.47;;;;;;;;;;4920774;29;20179;-85
2020/12/18 09:26:22;;;;;;;8.60;7.37;;;;;;;;;;4930912;29;20551;-85
2020/12/18 09:29:26;;;;;;;8.73;7.43;;;;;;;;;;4958303;29;20235;-85
2020/12/18 09:32:31;;;;;;;9.20;7.23;;;;;;;;;;4946601;29;20655;-84
2020/12/18 09:35:35;;;;;;;10.10;7.87;;;;;;;;;;4936555;29;20199;-84
2020/12/18 09:38:39;;;;;;;10.37;8.13;;;;;;;;;;4923906;29;20199;-84
2020/12/18 09:41:43;;;;;;;9.73;8.00;;;;;;;;;;4964520;28;20190;-85
2020/12/18 09:44:48;;;;;;;9.37;7.10;;;;;;;;;;4952981;29;20187;-87
2020/12/18 09:47:52;;;;;;;9.93;7.77;;;;;;;;;;4924242;29;20184;-85
2020/12/18 09:50:58;;;;;;;9.60;7.10;;;;;;;;;;4945577;29;20215;-86
2020/12/18 09:54:03;;;;;;;10.60;7.60;;;;;;;;;;4956567;29;20659;-86
2020/12/18 09:57:07;;;;;;;10.67;7.87;;;;;;;;;;4920903;29;20187;-86
2020/12/18 10:00:11;;;;;;;10.87;7.60;;;;;;;;;;4945556;29;20219;-86
2020/12/18 10:03:18;;;;;;;8.00;6.80;;;;;;;;;;4956440;29;20676;-85
2020/12/18 10:06:26;;;;;;;8.50;6.50;;;;;;;;;;4963627;28;20192;-85
2020/12/18 10:09:30;;;;;;;10.87;7.70;;;;;;;;;;4927266;29;20227;-86
2020/12/18 10:12:34;;;;;;;9.00;7.13;;;;;;;;;;5016003;23;20238;-74
2020/12/18 10:15:38;;;;;;;8.50;6.80;;;;;;;;;;4963941;28;20180;-74
2020/12/18 10:18:43;;;;;;;10.00;7.27;;;;;;;;;;4986772;28;20576;-75
2020/12/18 10:21:47;;;;;;;8.23;7.00;;;;;;;;;;4985011;28;20217;-74
2020/12/18 10:24:52;;;;;;;9.67;6.90;;;;;;;;;;5015577;28;20182;-75
2020/12/18 10:27:56;;;;;;;9.10;6.50;;;;;;;;;;4975947;28;20649;-74
2020/12/18 10:31:00;;;;;;;8.57;7.10;;;;;;;;;;4980829;28;20211;-74
2020/12/18 10:34:07;;;;;;;10.70;6.17;;;;;;;;;;4994280;28;20197;-76
2020/12/18 10:37:11;;;;;;;9.47;6.87;;;;;;;;;;4975599;28;20559;-74
2020/12/18 10:40:15;;;;;;;10.63;6.40;;;;;;;;;;4975244;28;20182;-73
2020/12/18 10:43:19;;;;;;;8.00;6.57;;;;;;;;;;4976322;28;20202;-74
2020/12/18 10:46:24;;;;;;;8.47;7.03;;;;;;;;;;4989138;28;20545;-73
2020/12/18 10:49:27;;;;;;;8.27;6.97;;;;;;;;;;4993914;28;20206;-74
2020/12/18 10:52:32;;;;;;;9.93;7.47;;;;;;;;;;4982449;28;20226;-73
2020/12/18 10:55:36;;;;;;;8.87;7.27;;;;;;;;;;4986144;28;20199;-74
2020/12/18 10:58:40;;;;;;;9.47;7.27;;;;;;;;;;4976842;28;20198;-77
2020/12/18 11:01:44;;;;;;;8.73;6.77;;;;;;;;;;4976046;28;20225;-77
2020/12/18 11:04:48;;;;;;;8.03;6.87;;;;;;;;;;4975013;28;20183;-75
2020/12/18 11:07:52;;;;;;;8.27;6.80;;;;;;;;;;4993741;28;20186;-75
2020/12/18 11:10:57;;;;;;;10.47;7.43;;;;;;;;;;4994261;28;20221;-77
2020/12/18 11:14:01;;;;;;;10.27;7.60;;;;;;;;;;4968723;28;20198;-76
2020/12/18 11:17:06;;;;;;;12.77;7.13;;;;;;;;;;4980768;28;20186;-76
2020/12/18 11:20:11;;;;;;;10.13;7.40;;;;;;;;;;4992559;28;20183;-76
2020/12/18 11:23:15;;;;;;;9.60;7.53;;;;;;;;;;4979691;28;20191;-76
2020/12/18 11:26:19;;;;;;;10.13;7.20;;;;;;;;;;4974785;28;20191;-76
2020/12/18 11:29:25;;;;;;;9.97;7.33;;;;;;;;;;4975297;28;20222;-77
2020/12/18 11:32:28;;;;;;;8.40;6.53;;;;;;;;;;4973628;28;20649;-76
2020/12/18 11:35:32;;;;;;;10.47;7.60;;;;;;;;;;4985629;28;20198;-76
2020/12/18 11:38:37;;;;;;;9.23;7.17;;;;;;;;;;4992962;28;20198;-76
2020/12/18 11:41:41;;;;;;;7.80;6.93;;;;;;;;;;4982579;28;20637;-76
2020/12/18 11:44:45;;;;;;;9.47;7.97;;;;;;;;;;4973736;28;20542;-76
2020/12/18 11:47:50;;;;;;;12.10;8.17;;;;;;;;;;4992895;28;20191;-77
2020/12/18 11:50:55;;;;;;;11.47;8.00;;;;;;;;;;4994576;28;20661;-77
2020/12/18 11:53:59;;;;;;;9.13;7.20;;;;;;;;;;4986348;28;20187;-76
2020/12/18 11:57:03;;;;;;;9.53;7.10;;;;;;;;;;4971744;28;20194;-76
2020/12/18 12:00:08;;;;;;;10.50;7.70;;;;;;;;;;4992606;28;20186;-77
2020/12/18 12:03:17;;;;;;;9.80;7.97;;;;;;;;;;4975007;28;20883;-77
2020/12/18 12:06:22;;;;;;;10.47;7.67;;;;;;;;;;4975306;28;20182;-76
2020/12/18 12:09:26;;;;;;;9.60;8.37;;;;;;;;;;4965012;28;20665;-77
2020/12/18 12:12:30;;;;;;;8.20;7.13;;;;;;;;;;4974463;28;20230;-77
2020/12/18 12:15:34;;;;;;;9.17;6.90;;;;;;;;;;4962674;28;20199;-78
2020/12/18 12:18:39;;;;;;;8.63;7.33;;;;;;;;;;4979994;28;20197;-77
2020/12/18 12:21:44;;;;;;;8.53;7.40;;;;;;;;;;4998007;28;20221;-76
2020/12/18 12:24:48;;;;;;;10.57;8.60;;;;;;;;;;4983492;28;20545;-76
2020/12/18 12:27:54;;;;;;;11.37;7.60;;;;;;;;;;4986642;28;20654;-76
2020/12/18 12:30:58;;;;;;;10.67;8.47;;;;;;;;;;4974322;28;20231;-76
2020/12/18 12:34:02;;;;;;;11.80;8.20;;;;;;;;;;4998388;28;20194;-76
2020/12/18 12:37:08;;;;;;;9.63;7.23;;;;;;;;;;4994976;28;20198;-76
2020/12/18 12:40:12;;;;;;;10.93;8.10;;;;;;;;;;4979716;28;20178;-75
2020/12/18 12:43:17;;;;;;;10.40;8.07;;;;;;;;;;4994528;28;20613;-74
2020/12/18 12:46:22;;;;;;;10.33;8.13;;;;;;;;;;4999782;28;20174;-75
2020/12/18 12:49:26;;;;;;;10.67;8.20;;;;;;;;;;4999140;28;20506;-74
2020/12/18 12:52:31;;;;;;;9.67;7.77;;;;;;;;;;4998814;28;20225;-75
2020/12/18 12:55:35;;;;;;;10.37;7.77;;;;;;;;;;4976102;28;20182;-74
2020/12/18 12:58:39;;;;;;;9.37;7.90;;;;;;;;;;4997863;28;20186;-75
2020/12/18 13:01:43;;;;;;;10.00;7.83;;;;;;;;;;4998131;28;20214;-74
2020/12/18 13:04:48;;;;;;;10.03;8.20;;;;;;;;;;4998331;28;20202;-74
2020/12/18 13:07:54;;;;;;;9.97;7.73;;;;;;;;;;4996870;28;20178;-74
2020/12/18 13:10:58;;;;;;;8.87;6.87;;;;;;;;;;4997097;28;20233;-75
2020/12/18 13:14:03;;;;;;;9.33;7.50;;;;;;;;;;4999898;28;20182;-74
2020/12/18 13:17:10;;;;;;;9.67;7.43;;;;;;;;;;4997769;28;20187;-74
2020/12/18 13:20:14;;;;;;;9.47;7.47;;;;;;;;;;4997957;28;20187;-74
2020/12/18 13:23:18;;;;;;;9.03;6.80;;;;;;;;;;4998575;28;20178;-74
2020/12/18 13:26:22;;;;;;;8.60;7.33;;;;;;;;;;4998308;28;20174;-74
2020/12/18 13:29:26;;;;;;;8.83;7.73;;;;;;;;;;4997733;28;20185;-74
2020/12/18 13:32:30;;;;;;;12.43;7.90;;;;;;;;;;4998008;28;20558;-75
2020/12/18 13:35:35;;;;;;;12.13;7.70;;;;;;;;;;4998108;28;20182;-74
2020/12/18 13:38:39;;;;;;;8.83;7.17;;;;;;;;;;4987418;28;20189;-76
2020/12/18 13:41:44;;;;;;;10.80;7.87;;;;;;;;;;4996758;28;20697;-75
2020/12/18 13:44:49;;;;;;;10.10;7.60;;;;;;;;;;4999622;28;20178;-75
2020/12/18 13:47:53;;;;;;;11.30;8.23;;;;;;;;;;4997836;28;20522;-75
2020/12/18 13:50:57;;;;;;;9.33;7.40;;;;;;;;;;4995025;28;20225;-76
2020/12/18 13:54:01;;;;;;;13.33;7.87;;;;;;;;;;4995131;28;20186;-76
2020/12/18 13:57:05;;;;;;;11.83;8.53;;;;;;;;;;4996334;28;20617;-75
2020/12/18 14:00:10;;;;;;;11.57;8.23;;;;;;;;;;4997309;28;20174;-73
2020/12/18 14:03:17;;;;;;;11.33;8.33;;;;;;;;;;4997245;28;20518;-74
2020/12/18 14:06:22;;;;;;;11.47;8.30;;;;;;;;;;4997426;28;20179;-75
2020/12/18 14:09:26;;;;;;;14.33;9.17;;;;;;;;;;4986591;28;20185;-74
2020/12/18 14:12:32;;;;;;;12.00;9.23;;;;;;;;;;4996834;28;20226;-73
2020/12/18 14:15:36;;;;;;;14.70;9.40;;;;;;;;;;4996122;28;20182;-73
2020/12/18 14:18:40;;;;;;;14.03;9.63;;;;;;;;;;4995927;28;20518;-74
2020/12/18 14:21:45;;;;;;;14.30;10.30;;;;;;;;;;4990463;28;20210;-74
2020/12/18 14:24:50;;;;;;;13.17;9.63;;;;;;;;;;4979954;28;20198;-74
2020/12/18 14:27:54;;;;;;;13.57;9.40;;;;;;;;;;4976716;28;20638;-74
2020/12/18 14:30:58;;;;;;;15.93;10.07;;;;;;;;;;4985774;28;20234;-74
2020/12/18 14:34:03;;;;;;;14.77;10.40;;;;;;;;;;4996316;28;20186;-75
2020/12/18 14:37:10;;;;;;;15.27;10.13;;;;;;;;;;4994274;28;20198;-74
2020/12/18 14:40:13;;;;;;;16.23;10.57;;;;;;;;;;4980527;28;20190;-74
2020/12/18 14:43:18;;;;;;;13.53;10.17;;;;;;;;;;4997134;28;20533;-75
2020/12/18 14:46:22;;;;;;;15.33;10.77;;;;;;;;;;4984007;28;20633;-74
2020/12/18 14:49:28;;;;;;;13.63;9.67;;;;;;;;;;4995501;28;20633;-74
2020/12/18 14:52:34;;;;;;;15.37;9.73;;;;;;;;;;4977248;28;20211;-74
2020/12/18 14:55:38;;;;;;;13.47;10.30;;;;;;;;;;4990993;28;20194;-74
2020/12/18 14:58:43;;;;;;;11.63;9.17;;;;;;;;;;4980974;28;20293;-74
2020/12/18 15:01:49;;;;;;;13.43;9.60;;;;;;;;;;4991850;28;20214;-76
2020/12/18 15:04:53;;;;;;;11.47;9.07;;;;;;;;;;4995991;28;20178;-75
2020/12/18 15:08:03;;;;;;;13.20;10.13;;;;;;;;;;4990849;28;20630;-74
2020/12/18 15:11:10;;;;;;;10.87;9.13;;;;;;;;;;4954836;28;20705;-74
2020/12/18 15:14:14;;;;;;;13.77;10.47;;;;;;;;;;4962763;28;20191;-74
2020/12/18 15:17:18;;;;;;;13.23;10.63;;;;;;;;;;4979590;28;20198;-74
2020/12/18 15:20:25;;;;;;;16.13;10.20;;;;;;;;;;4981527;28;20194;-74
2020/12/18 15:23:29;;;;;;;15.20;10.83;;;;;;;;;;4975184;28;20179;-74
2020/12/18 15:26:33;;;;;;;13.90;10.87;;;;;;;;;;4974883;28;20199;-74
2020/12/18 15:29:39;;;;;;;14.07;11.03;;;;;;;;;;4980024;28;20198;-75
2020/12/18 15:32:46;;;;;;;13.83;10.50;;;;;;;;;;4994695;28;20178;-74
2020/12/18 15:35:51;;;;;;;37.93;21.30;;;;;;;;;;4975001;28;20523;-74
2020/12/18 15:38:55;;;;;;;35.93;19.97;;;;;;;;;;4975875;28;20198;-74
2020/12/18 15:42:00;;;;;;;27.43;17.03;;;;;;;;;;4990098;28;20205;-75
2020/12/18 15:45:05;;;;;;;16.63;12.07;;;;;;;;;;4997865;28;20584;-74
2020/12/18 15:48:09;;;;;;;17.60;12.80;;;;;;;;;;4975728;28;20186;-75
2020/12/18 15:51:15;;;;;;;19.90;13.30;;;;;;;;;;4964534;28;20653;-75
2020/12/18 15:54:20;;;;;;;20.17;12.70;;;;;;;;;;4979811;28;20559;-75
2020/12/18 15:57:24;;;;;;;17.43;13.27;;;;;;;;;;4995760;28;20583;-74
2020/12/18 16:00:28;;;;;;;20.57;13.87;;;;;;;;;;4993885;28;20598;-74
2020/12/18 16:03:33;;;;;;;15.83;11.40;;;;;;;;;;4992111;28;20598;-75
2020/12/18 16:06:38;;;;;;;13.57;10.93;;;;;;;;;;5017342;28;20624;-75
2020/12/18 16:09:42;;;;;;;15.00;10.43;;;;;;;;;;5028108;28;20621;-74
2020/12/18 16:12:46;;;;;;;22.83;11.23;;;;;;;;;;5006045;28;20624;-74
2020/12/18 16:15:51;;;;;;;14.80;10.60;;;;;;;;;;4980124;28;21167;-75
2020/12/18 16:18:55;;;;;;;15.60;9.90;;;;;;;;;;5012878;28;20616;-75
2020/12/18 16:22:01;;;;;;;12.47;9.17;;;;;;;;;;5008128;28;20977;-74
2020/12/18 16:25:06;;;;;;;17.93;8.67;;;;;;;;;;4994393;28;20582;-74
2020/12/18 16:28:10;;;;;;;12.53;8.97;;;;;;;;;;4981573;28;20582;-74
2020/12/18 16:31:14;;;;;;;11.87;8.57;;;;;;;;;;4991082;28;21242;-74
2020/12/18 16:34:18;;;;;;;13.53;8.17;;;;;;;;;;4995240;28;20593;-74
2020/12/18 16:37:22;;;;;;;13.57;8.77;;;;;;;;;;5018569;28;20549;-74
2020/12/18 16:40:27;;;;;;;14.67;8.53;;;;;;;;;;4980785;28;20578;-75
2020/12/18 16:43:31;;;;;;;14.40;7.87;;;;;;;;;;4977657;28;20590;-74
2020/12/18 16:46:37;;;;;;;11.87;8.03;;;;;;;;;;4978015;28;20621;-74
2020/12/18 16:49:41;;;;;;;11.63;8.40;;;;;;;;;;4982495;28;21175;-74
2020/12/18 16:52:45;;;;;;;12.10;8.33;;;;;;;;;;4997179;28;21226;-74
2020/12/18 16:55:51;;;;;;;14.70;7.80;;;;;;;;;;4992877;28;20578;-75
2020/12/18 16:58:56;;;;;;;11.53;7.17;;;;;;;;;;4966648;28;20594;-74
2020/12/18 17:02:04;;;;;;;11.00;7.43;;;;;;;;;;5008063;23;20688;-73
2020/12/18 17:05:08;;;;;;;17.53;7.40;;;;;;;;;;5009722;28;20589;-73
2020/12/18 17:08:12;;;;;;;17.90;7.63;;;;;;;;;;4989677;28;20588;-74
2020/12/18 17:11:17;;;;;;;20.37;7.67;;;;;;;;;;4996052;28;21215;-73
2020/12/18 17:14:21;;;;;;;15.07;7.73;;;;;;;;;;5022610;28;20633;-73
2020/12/18 17:17:25;;;;;;;21.47;7.67;;;;;;;;;;5015988;28;20540;-73
2020/12/18 17:20:29;;;;;;;31.33;7.53;;;;;;;;;;5015974;28;20541;-73
2020/12/18 17:23:33;;;;;;;17.73;7.30;;;;;;;;;;5029151;28;21134;-73
2020/12/18 17:26:37;;;;;;;11.77;7.17;;;;;;;;;;5004156;28;20600;-73
2020/12/18 17:29:41;;;;;;;13.03;7.53;;;;;;;;;;5015402;28;20596;-73
2020/12/18 17:32:46;;;;;;;9.93;7.03;;;;;;;;;;5015411;28;20600;-73
2020/12/18 17:35:51;;;;;;;9.37;7.23;;;;;;;;;;5004855;28;20537;-73
2020/12/18 17:38:55;;;;;;;8.87;6.90;;;;;;;;;;5002317;28;20576;-74
2020/12/18 17:42:01;;;;;;;9.37;7.17;;;;;;;;;;5014378;28;20652;-73
2020/12/18 17:45:05;;;;;;;11.40;7.50;;;;;;;;;;5002071;28;20556;-75
2020/12/18 17:48:09;;;;;;;8.60;6.40;;;;;;;;;;5007306;28;20572;-74
2020/12/18 17:51:14;;;;;;;10.77;6.70;;;;;;;;;;5033693;28;20699;-75
2020/12/18 17:54:19;;;;;;;8.40;6.57;;;;;;;;;;5020569;28;20623;-75
2020/12/18 17:57:23;;;;;;;9.40;7.13;;;;;;;;;;5029872;28;20583;-74
2020/12/18 18:00:27;;;;;;;10.67;8.47;;;;;;;;;;5034996;28;20552;-74
2020/12/18 18:03:31;;;;;;;8.17;6.03;;;;;;;;;;5023423;28;20931;-73
2020/12/18 18:06:36;;;;;;;9.57;6.70;;;;;;;;;;5026639;28;20620;-73
2020/12/18 18:09:40;;;;;;;9.13;6.50;;;;;;;;;;5002935;28;21177;-73
2020/12/18 18:12:44;;;;;;;11.50;8.10;;;;;;;;;;5015534;28;20628;-73
2020/12/18 18:15:48;;;;;;;11.20;7.60;;;;;;;;;;5016551;28;20556;-73
2020/12/18 18:18:53;;;;;;;10.13;6.83;;;;;;;;;;5035771;28;20560;-73
2020/12/18 18:21:58;;;;;;;22.47;10.67;;;;;;;;;;4997803;28;20986;-73
2020/12/18 18:25:02;;;;;;;13.07;8.67;;;;;;;;;;5002855;28;20557;-73
2020/12/18 18:28:07;;;;;;;16.93;7.50;;;;;;;;;;5015064;28;20920;-73
2020/12/18 18:31:11;;;;;;;19.40;7.93;;;;;;;;;;5002888;28;20620;-73
2020/12/18 18:34:16;;;;;;;12.27;7.93;;;;;;;;;;5003914;28;20556;-73
2020/12/18 18:37:20;;;;;;;10.67;7.90;;;;;;;;;;5016850;28;21161;-73